sensor_id;sensor_type;location;lat;lon;timestamp;P1;durP1;ratioP1;P2;durP2;ratioP2
79412;SDS011;68863;49.528;11.010;2023-08-06T00:00:37;4.63;;;1.92;;
79412;SDS011;68863;49.528;11.010;2023-08-06T00:01:37;4.18;;;1.92;;
79412;SDS011;68863;49.528;11.010;2023-08-06T00:02:38;4.30;;;1.83;;
79412;SDS011;68863;49.528;11.010;2023-08-06T00:03:38;4.93;;;1.95;;
79412;SDS011;68863;49.528;11.010;2023-08-06T00:04:38;4.87;;;1.93;;
79412;SDS011;68863;49.528;11.010;2023-08-06T00:05:41;4.90;;;1.83;;
79412;SDS011;68863;49.528;11.010;2023-08-06T00:06:42;6.90;;;1.88;;
79412;SDS011;68863;49.528;11.010;2023-08-06T00:07:46;4.80;;;1.70;;
79412;SDS011;68863;49.528;11.010;2023-08-06T00:08:48;4.82;;;2.03;;
79412;SDS011;68863;49.528;11.010;2023-08-06T00:09:48;5.60;;;2.00;;
79412;SDS011;68863;49.528;11.010;2023-08-06T00:10:48;4.57;;;1.80;;
79412;SDS011;68863;49.528;11.010;2023-08-06T00:11:51;4.40;;;1.90;;
79412;SDS011;68863;49.528;11.010;2023-08-06T00:12:52;6.07;;;1.88;;
79412;SDS011;68863;49.528;11.010;2023-08-06T00:13:52;4.72;;;1.73;;
79412;SDS011;68863;49.528;11.010;2023-08-06T00:14:52;5.28;;;1.80;;
79412;SDS011;68863;49.528;11.010;2023-08-06T00:15:53;4.22;;;1.80;;
79412;SDS011;68863;49.528;11.010;2023-08-06T00:16:54;5.72;;;1.77;;
79412;SDS011;68863;49.528;11.010;2023-08-06T00:17:54;4.53;;;2.00;;
79412;SDS011;68863;49.528;11.010;2023-08-06T00:18:54;4.65;;;2.10;;
79412;SDS011;68863;49.528;11.010;2023-08-06T00:19:55;5.30;;;2.00;;
79412;SDS011;68863;49.528;11.010;2023-08-06T00:20:55;5.18;;;2.13;;
79412;SDS011;68863;49.528;11.010;2023-08-06T00:21:55;4.43;;;2.00;;
79412;SDS011;68863;49.528;11.010;2023-08-06T00:22:55;4.57;;;1.60;;
79412;SDS011;68863;49.528;11.010;2023-08-06T00:23:56;4.28;;;1.58;;
79412;SDS011;68863;49.528;11.010;2023-08-06T00:24:56;4.23;;;1.93;;
79412;SDS011;68863;49.528;11.010;2023-08-06T00:25:57;4.53;;;1.90;;
79412;SDS011;68863;49.528;11.010;2023-08-06T00:26:57;4.77;;;2.20;;
79412;SDS011;68863;49.528;11.010;2023-08-06T00:27:58;5.23;;;1.83;;
79412;SDS011;68863;49.528;11.010;2023-08-06T00:28:58;5.15;;;1.60;;
79412;SDS011;68863;49.528;11.010;2023-08-06T00:29:58;4.27;;;1.90;;
79412;SDS011;68863;49.528;11.010;2023-08-06T00:30:59;5.05;;;1.83;;
79412;SDS011;68863;49.528;11.010;2023-08-06T00:31:59;4.53;;;2.05;;
79412;SDS011;68863;49.528;11.010;2023-08-06T00:32:59;4.30;;;1.85;;
79412;SDS011;68863;49.528;11.010;2023-08-06T00:34:00;4.32;;;1.70;;
79412;SDS011;68863;49.528;11.010;2023-08-06T00:35:00;4.80;;;1.80;;
79412;SDS011;68863;49.528;11.010;2023-08-06T00:36:00;4.20;;;1.77;;
79412;SDS011;68863;49.528;11.010;2023-08-06T00:37:00;4.83;;;2.10;;
79412;SDS011;68863;49.528;11.010;2023-08-06T00:38:01;5.87;;;2.00;;
79412;SDS011;68863;49.528;11.010;2023-08-06T00:39:01;5.43;;;2.20;;
79412;SDS011;68863;49.528;11.010;2023-08-06T00:40:02;3.83;;;1.58;;
79412;SDS011;68863;49.528;11.010;2023-08-06T00:41:02;4.47;;;1.83;;
79412;SDS011;68863;49.528;11.010;2023-08-06T00:42:03;4.28;;;2.13;;
79412;SDS011;68863;49.528;11.010;2023-08-06T00:43:03;4.43;;;1.92;;
79412;SDS011;68863;49.528;11.010;2023-08-06T00:44:04;4.63;;;1.88;;
79412;SDS011;68863;49.528;11.010;2023-08-06T00:45:04;4.93;;;2.22;;
79412;SDS011;68863;49.528;11.010;2023-08-06T00:46:05;4.43;;;1.98;;
79412;SDS011;68863;49.528;11.010;2023-08-06T00:47:06;4.00;;;1.88;;
79412;SDS011;68863;49.528;11.010;2023-08-06T00:48:07;5.45;;;1.85;;
79412;SDS011;68863;49.528;11.010;2023-08-06T00:49:08;4.22;;;1.45;;
79412;SDS011;68863;49.528;11.010;2023-08-06T00:50:08;4.38;;;1.85;;
79412;SDS011;68863;49.528;11.010;2023-08-06T00:51:09;4.95;;;1.52;;
79412;SDS011;68863;49.528;11.010;2023-08-06T00:52:11;4.45;;;2.22;;
79412;SDS011;68863;49.528;11.010;2023-08-06T00:53:13;3.90;;;1.63;;
79412;SDS011;68863;49.528;11.010;2023-08-06T00:54:14;4.60;;;2.03;;
79412;SDS011;68863;49.528;11.010;2023-08-06T00:55:15;5.47;;;1.95;;
79412;SDS011;68863;49.528;11.010;2023-08-06T00:56:15;5.13;;;2.25;;
79412;SDS011;68863;49.528;11.010;2023-08-06T00:57:15;4.47;;;1.50;;
79412;SDS011;68863;49.528;11.010;2023-08-06T00:58:16;4.57;;;1.73;;
79412;SDS011;68863;49.528;11.010;2023-08-06T00:59:17;4.50;;;1.60;;
79412;SDS011;68863;49.528;11.010;2023-08-06T01:00:17;4.53;;;1.50;;
79412;SDS011;68863;49.528;11.010;2023-08-06T01:01:19;4.18;;;1.60;;
79412;SDS011;68863;49.528;11.010;2023-08-06T01:02:19;4.75;;;1.80;;
79412;SDS011;68863;49.528;11.010;2023-08-06T01:03:19;4.00;;;1.70;;
79412;SDS011;68863;49.528;11.010;2023-08-06T01:04:20;4.10;;;1.90;;
79412;SDS011;68863;49.528;11.010;2023-08-06T01:05:20;5.45;;;1.65;;
79412;SDS011;68863;49.528;11.010;2023-08-06T01:06:33;4.32;;;1.50;;
79412;SDS011;68863;49.528;11.010;2023-08-06T01:08:58;5.97;;;1.75;;
79412;SDS011;68863;49.528;11.010;2023-08-06T01:10:10;4.65;;;2.15;;
79412;SDS011;68863;49.528;11.010;2023-08-06T01:12:51;4.18;;;1.50;;
79412;SDS011;68863;49.528;11.010;2023-08-06T01:15:31;4.22;;;1.65;;
79412;SDS011;68863;49.528;11.010;2023-08-06T01:16:35;5.90;;;2.30;;
79412;SDS011;68863;49.528;11.010;2023-08-06T01:17:36;3.78;;;1.73;;
79412;SDS011;68863;49.528;11.010;2023-08-06T01:18:38;4.72;;;1.50;;
79412;SDS011;68863;49.528;11.010;2023-08-06T01:19:39;3.90;;;1.65;;
79412;SDS011;68863;49.528;11.010;2023-08-06T01:20:40;3.47;;;1.23;;
79412;SDS011;68863;49.528;11.010;2023-08-06T01:21:40;4.35;;;1.48;;
79412;SDS011;68863;49.528;11.010;2023-08-06T01:22:40;4.30;;;1.50;;
79412;SDS011;68863;49.528;11.010;2023-08-06T01:23:41;4.37;;;1.70;;
79412;SDS011;68863;49.528;11.010;2023-08-06T01:24:44;4.35;;;1.45;;
79412;SDS011;68863;49.528;11.010;2023-08-06T01:27:28;3.67;;;1.25;;
79412;SDS011;68863;49.528;11.010;2023-08-06T01:28:35;5.60;;;1.63;;
79412;SDS011;68863;49.528;11.010;2023-08-06T01:29:53;4.28;;;1.70;;
79412;SDS011;68863;49.528;11.010;2023-08-06T01:31:01;5.00;;;1.40;;
79412;SDS011;68863;49.528;11.010;2023-08-06T01:32:03;3.80;;;1.55;;
79412;SDS011;68863;49.528;11.010;2023-08-06T01:33:04;3.90;;;1.20;;
79412;SDS011;68863;49.528;11.010;2023-08-06T01:34:06;4.45;;;1.58;;
79412;SDS011;68863;49.528;11.010;2023-08-06T01:35:10;3.83;;;1.17;;
79412;SDS011;68863;49.528;11.010;2023-08-06T01:36:12;3.53;;;1.52;;
79412;SDS011;68863;49.528;11.010;2023-08-06T01:37:13;4.10;;;1.67;;
79412;SDS011;68863;49.528;11.010;2023-08-06T01:38:14;3.38;;;1.33;;
79412;SDS011;68863;49.528;11.010;2023-08-06T01:39:17;4.43;;;1.52;;
79412;SDS011;68863;49.528;11.010;2023-08-06T01:40:20;3.53;;;1.52;;
79412;SDS011;68863;49.528;11.010;2023-08-06T01:41:21;4.87;;;1.43;;
79412;SDS011;68863;49.528;11.010;2023-08-06T01:42:21;3.20;;;1.45;;
79412;SDS011;68863;49.528;11.010;2023-08-06T01:43:21;3.70;;;1.20;;
79412;SDS011;68863;49.528;11.010;2023-08-06T01:44:21;4.20;;;1.50;;
79412;SDS011;68863;49.528;11.010;2023-08-06T01:45:22;4.10;;;1.77;;
79412;SDS011;68863;49.528;11.010;2023-08-06T01:46:22;4.15;;;1.38;;
79412;SDS011;68863;49.528;11.010;2023-08-06T01:47:22;3.30;;;1.13;;
79412;SDS011;68863;49.528;11.010;2023-08-06T01:48:22;3.70;;;1.50;;
79412;SDS011;68863;49.528;11.010;2023-08-06T01:49:23;3.97;;;1.30;;
79412;SDS011;68863;49.528;11.010;2023-08-06T01:50:23;5.75;;;1.35;;
79412;SDS011;68863;49.528;11.010;2023-08-06T01:51:23;3.83;;;1.20;;
79412;SDS011;68863;49.528;11.010;2023-08-06T01:52:24;4.00;;;1.30;;
79412;SDS011;68863;49.528;11.010;2023-08-06T01:53:24;3.53;;;1.25;;
79412;SDS011;68863;49.528;11.010;2023-08-06T01:54:24;4.07;;;1.67;;
79412;SDS011;68863;49.528;11.010;2023-08-06T01:55:25;4.32;;;1.13;;
79412;SDS011;68863;49.528;11.010;2023-08-06T01:56:25;5.53;;;1.17;;
79412;SDS011;68863;49.528;11.010;2023-08-06T01:57:25;3.90;;;1.03;;
79412;SDS011;68863;49.528;11.010;2023-08-06T01:58:25;3.78;;;1.13;;
79412;SDS011;68863;49.528;11.010;2023-08-06T01:59:26;3.75;;;1.23;;
79412;SDS011;68863;49.528;11.010;2023-08-06T02:00:26;3.63;;;1.50;;
79412;SDS011;68863;49.528;11.010;2023-08-06T02:01:27;4.13;;;1.45;;
79412;SDS011;68863;49.528;11.010;2023-08-06T02:02:28;5.03;;;1.23;;
79412;SDS011;68863;49.528;11.010;2023-08-06T02:03:28;3.70;;;1.23;;
79412;SDS011;68863;49.528;11.010;2023-08-06T02:04:28;4.75;;;1.50;;
79412;SDS011;68863;49.528;11.010;2023-08-06T02:05:28;3.87;;;1.13;;
79412;SDS011;68863;49.528;11.010;2023-08-06T02:06:29;3.33;;;0.93;;
79412;SDS011;68863;49.528;11.010;2023-08-06T02:07:29;3.58;;;1.38;;
79412;SDS011;68863;49.528;11.010;2023-08-06T02:08:29;4.07;;;1.40;;
79412;SDS011;68863;49.528;11.010;2023-08-06T02:09:30;4.18;;;1.25;;
79412;SDS011;68863;49.528;11.010;2023-08-06T02:10:30;3.10;;;1.20;;
79412;SDS011;68863;49.528;11.010;2023-08-06T02:11:30;4.00;;;1.40;;
79412;SDS011;68863;49.528;11.010;2023-08-06T02:12:30;3.78;;;1.52;;
79412;SDS011;68863;49.528;11.010;2023-08-06T02:13:31;4.63;;;1.83;;
79412;SDS011;68863;49.528;11.010;2023-08-06T02:14:32;3.47;;;1.20;;
79412;SDS011;68863;49.528;11.010;2023-08-06T02:15:32;4.13;;;1.40;;
79412;SDS011;68863;49.528;11.010;2023-08-06T02:16:33;3.53;;;1.50;;
79412;SDS011;68863;49.528;11.010;2023-08-06T02:17:33;4.07;;;1.15;;
79412;SDS011;68863;49.528;11.010;2023-08-06T02:18:33;3.95;;;1.70;;
79412;SDS011;68863;49.528;11.010;2023-08-06T02:19:33;4.73;;;1.20;;
79412;SDS011;68863;49.528;11.010;2023-08-06T02:20:34;4.50;;;1.47;;
79412;SDS011;68863;49.528;11.010;2023-08-06T02:21:34;3.72;;;1.02;;
79412;SDS011;68863;49.528;11.010;2023-08-06T02:22:34;3.40;;;1.10;;
79412;SDS011;68863;49.528;11.010;2023-08-06T02:23:34;4.77;;;1.30;;
79412;SDS011;68863;49.528;11.010;2023-08-06T02:24:35;4.68;;;1.40;;
79412;SDS011;68863;49.528;11.010;2023-08-06T02:25:35;3.70;;;1.40;;
79412;SDS011;68863;49.528;11.010;2023-08-06T02:26:35;4.57;;;1.52;;
79412;SDS011;68863;49.528;11.010;2023-08-06T02:27:36;4.37;;;1.30;;
79412;SDS011;68863;49.528;11.010;2023-08-06T02:28:37;4.15;;;1.48;;
79412;SDS011;68863;49.528;11.010;2023-08-06T02:29:39;3.70;;;1.27;;
79412;SDS011;68863;49.528;11.010;2023-08-06T02:30:49;4.85;;;1.48;;
79412;SDS011;68863;49.528;11.010;2023-08-06T02:31:52;3.33;;;1.23;;
79412;SDS011;68863;49.528;11.010;2023-08-06T02:32:52;3.33;;;1.30;;
79412;SDS011;68863;49.528;11.010;2023-08-06T02:33:52;4.85;;;1.75;;
79412;SDS011;68863;49.528;11.010;2023-08-06T02:34:53;4.20;;;1.13;;
79412;SDS011;68863;49.528;11.010;2023-08-06T02:36:00;2.90;;;1.08;;
79412;SDS011;68863;49.528;11.010;2023-08-06T02:37:01;3.15;;;1.23;;
79412;SDS011;68863;49.528;11.010;2023-08-06T02:38:01;3.90;;;1.30;;
79412;SDS011;68863;49.528;11.010;2023-08-06T02:39:01;3.60;;;1.10;;
79412;SDS011;68863;49.528;11.010;2023-08-06T02:40:02;2.97;;;0.95;;
79412;SDS011;68863;49.528;11.010;2023-08-06T02:41:03;3.00;;;0.95;;
79412;SDS011;68863;49.528;11.010;2023-08-06T02:42:03;2.72;;;0.82;;
79412;SDS011;68863;49.528;11.010;2023-08-06T02:43:04;4.47;;;0.95;;
79412;SDS011;68863;49.528;11.010;2023-08-06T02:44:04;3.20;;;1.00;;
79412;SDS011;68863;49.528;11.010;2023-08-06T02:45:05;3.28;;;0.93;;
79412;SDS011;68863;49.528;11.010;2023-08-06T02:46:05;3.67;;;1.20;;
79412;SDS011;68863;49.528;11.010;2023-08-06T02:47:06;3.33;;;0.87;;
79412;SDS011;68863;49.528;11.010;2023-08-06T02:48:06;3.03;;;0.73;;
79412;SDS011;68863;49.528;11.010;2023-08-06T02:49:06;3.17;;;0.82;;
79412;SDS011;68863;49.528;11.010;2023-08-06T02:50:07;4.30;;;1.20;;
79412;SDS011;68863;49.528;11.010;2023-08-06T02:51:07;3.85;;;0.82;;
79412;SDS011;68863;49.528;11.010;2023-08-06T02:52:08;3.63;;;0.90;;
79412;SDS011;68863;49.528;11.010;2023-08-06T02:53:08;3.00;;;0.90;;
79412;SDS011;68863;49.528;11.010;2023-08-06T02:54:08;3.70;;;0.95;;
79412;SDS011;68863;49.528;11.010;2023-08-06T02:55:09;4.57;;;1.37;;
79412;SDS011;68863;49.528;11.010;2023-08-06T02:56:10;5.53;;;1.83;;
79412;SDS011;68863;49.528;11.010;2023-08-06T02:57:10;4.13;;;1.40;;
79412;SDS011;68863;49.528;11.010;2023-08-06T02:58:10;3.30;;;1.30;;
79412;SDS011;68863;49.528;11.010;2023-08-06T02:59:11;5.03;;;1.20;;
79412;SDS011;68863;49.528;11.010;2023-08-06T03:00:11;3.58;;;1.38;;
79412;SDS011;68863;49.528;11.010;2023-08-06T03:01:12;3.95;;;1.25;;
79412;SDS011;68863;49.528;11.010;2023-08-06T03:02:12;6.50;;;1.23;;
79412;SDS011;68863;49.528;11.010;2023-08-06T03:03:12;3.90;;;1.05;;
79412;SDS011;68863;49.528;11.010;2023-08-06T03:04:12;4.13;;;1.13;;
79412;SDS011;68863;49.528;11.010;2023-08-06T03:05:13;2.88;;;0.98;;
79412;SDS011;68863;49.528;11.010;2023-08-06T03:06:13;4.10;;;1.10;;
79412;SDS011;68863;49.528;11.010;2023-08-06T03:07:13;4.07;;;1.13;;
79412;SDS011;68863;49.528;11.010;2023-08-06T03:08:14;4.57;;;1.00;;
79412;SDS011;68863;49.528;11.010;2023-08-06T03:09:14;3.78;;;1.10;;
79412;SDS011;68863;49.528;11.010;2023-08-06T03:10:14;3.88;;;1.02;;
79412;SDS011;68863;49.528;11.010;2023-08-06T03:11:14;3.03;;;1.10;;
79412;SDS011;68863;49.528;11.010;2023-08-06T03:12:15;4.07;;;1.00;;
79412;SDS011;68863;49.528;11.010;2023-08-06T03:13:16;3.10;;;1.00;;
79412;SDS011;68863;49.528;11.010;2023-08-06T03:14:16;3.92;;;1.13;;
79412;SDS011;68863;49.528;11.010;2023-08-06T03:15:16;3.50;;;1.10;;
79412;SDS011;68863;49.528;11.010;2023-08-06T03:16:17;2.97;;;0.82;;
79412;SDS011;68863;49.528;11.010;2023-08-06T03:17:17;3.43;;;1.33;;
79412;SDS011;68863;49.528;11.010;2023-08-06T03:18:17;2.40;;;0.63;;
79412;SDS011;68863;49.528;11.010;2023-08-06T03:19:18;4.10;;;0.98;;
79412;SDS011;68863;49.528;11.010;2023-08-06T03:20:18;3.10;;;0.90;;
79412;SDS011;68863;49.528;11.010;2023-08-06T03:21:18;3.57;;;1.00;;
79412;SDS011;68863;49.528;11.010;2023-08-06T03:22:18;3.75;;;0.95;;
79412;SDS011;68863;49.528;11.010;2023-08-06T03:23:19;3.80;;;1.17;;
79412;SDS011;68863;49.528;11.010;2023-08-06T03:24:19;4.05;;;1.15;;
79412;SDS011;68863;49.528;11.010;2023-08-06T03:25:19;3.78;;;1.33;;
79412;SDS011;68863;49.528;11.010;2023-08-06T03:26:19;4.17;;;1.20;;
79412;SDS011;68863;49.528;11.010;2023-08-06T03:27:20;4.10;;;1.20;;
79412;SDS011;68863;49.528;11.010;2023-08-06T03:28:20;3.47;;;1.20;;
79412;SDS011;68863;49.528;11.010;2023-08-06T03:29:22;5.25;;;1.20;;
79412;SDS011;68863;49.528;11.010;2023-08-06T03:30:22;3.95;;;1.13;;
79412;SDS011;68863;49.528;11.010;2023-08-06T03:31:22;3.50;;;1.07;;
79412;SDS011;68863;49.528;11.010;2023-08-06T03:32:22;3.20;;;1.00;;
79412;SDS011;68863;49.528;11.010;2023-08-06T03:33:23;3.70;;;1.20;;
79412;SDS011;68863;49.528;11.010;2023-08-06T03:34:23;4.90;;;1.23;;
79412;SDS011;68863;49.528;11.010;2023-08-06T03:35:23;3.43;;;1.10;;
79412;SDS011;68863;49.528;11.010;2023-08-06T03:36:23;3.83;;;1.42;;
79412;SDS011;68863;49.528;11.010;2023-08-06T03:37:24;4.07;;;1.20;;
79412;SDS011;68863;49.528;11.010;2023-08-06T03:38:24;3.85;;;1.05;;
79412;SDS011;68863;49.528;11.010;2023-08-06T03:39:24;4.75;;;1.42;;
79412;SDS011;68863;49.528;11.010;2023-08-06T03:40:25;5.33;;;1.20;;
79412;SDS011;68863;49.528;11.010;2023-08-06T03:41:25;3.08;;;1.08;;
79412;SDS011;68863;49.528;11.010;2023-08-06T03:42:25;3.13;;;0.97;;
79412;SDS011;68863;49.528;11.010;2023-08-06T03:43:25;4.47;;;0.93;;
79412;SDS011;68863;49.528;11.010;2023-08-06T03:44:26;4.50;;;1.17;;
79412;SDS011;68863;49.528;11.010;2023-08-06T03:45:28;3.58;;;1.15;;
79412;SDS011;68863;49.528;11.010;2023-08-06T03:46:28;3.40;;;1.07;;
79412;SDS011;68863;49.528;11.010;2023-08-06T03:47:28;3.10;;;1.08;;
79412;SDS011;68863;49.528;11.010;2023-08-06T03:48:28;3.60;;;1.13;;
79412;SDS011;68863;49.528;11.010;2023-08-06T03:49:29;3.60;;;1.20;;
79412;SDS011;68863;49.528;11.010;2023-08-06T03:50:29;3.53;;;1.23;;
79412;SDS011;68863;49.528;11.010;2023-08-06T03:51:29;4.22;;;1.23;;
79412;SDS011;68863;49.528;11.010;2023-08-06T03:52:29;5.07;;;1.20;;
79412;SDS011;68863;49.528;11.010;2023-08-06T03:53:30;3.85;;;1.25;;
79412;SDS011;68863;49.528;11.010;2023-08-06T03:54:30;3.93;;;1.07;;
79412;SDS011;68863;49.528;11.010;2023-08-06T03:55:30;4.18;;;1.42;;
79412;SDS011;68863;49.528;11.010;2023-08-06T03:56:31;3.70;;;1.30;;
79412;SDS011;68863;49.528;11.010;2023-08-06T03:57:31;3.20;;;0.95;;
79412;SDS011;68863;49.528;11.010;2023-08-06T03:58:31;4.35;;;1.33;;
79412;SDS011;68863;49.528;11.010;2023-08-06T03:59:31;3.63;;;1.17;;
79412;SDS011;68863;49.528;11.010;2023-08-06T04:00:32;2.73;;;0.87;;
79412;SDS011;68863;49.528;11.010;2023-08-06T04:01:32;3.50;;;1.10;;
79412;SDS011;68863;49.528;11.010;2023-08-06T04:02:32;4.00;;;1.27;;
79412;SDS011;68863;49.528;11.010;2023-08-06T04:03:32;3.93;;;1.17;;
79412;SDS011;68863;49.528;11.010;2023-08-06T04:04:33;4.20;;;1.13;;
79412;SDS011;68863;49.528;11.010;2023-08-06T04:05:33;4.93;;;1.37;;
79412;SDS011;68863;49.528;11.010;2023-08-06T04:06:33;3.42;;;1.35;;
79412;SDS011;68863;49.528;11.010;2023-08-06T04:07:34;4.60;;;1.13;;
79412;SDS011;68863;49.528;11.010;2023-08-06T04:08:34;4.20;;;1.48;;
79412;SDS011;68863;49.528;11.010;2023-08-06T04:09:35;4.07;;;1.38;;
79412;SDS011;68863;49.528;11.010;2023-08-06T04:10:52;3.42;;;0.90;;
79412;SDS011;68863;49.528;11.010;2023-08-06T04:11:52;3.13;;;0.98;;
79412;SDS011;68863;49.528;11.010;2023-08-06T04:12:53;4.32;;;1.13;;
79412;SDS011;68863;49.528;11.010;2023-08-06T04:13:53;3.47;;;1.00;;
79412;SDS011;68863;49.528;11.010;2023-08-06T04:14:54;4.45;;;1.02;;
79412;SDS011;68863;49.528;11.010;2023-08-06T04:16:00;3.22;;;1.17;;
79412;SDS011;68863;49.528;11.010;2023-08-06T04:17:00;3.35;;;1.23;;
79412;SDS011;68863;49.528;11.010;2023-08-06T04:18:01;4.17;;;1.30;;
79412;SDS011;68863;49.528;11.010;2023-08-06T04:19:01;3.50;;;1.07;;
79412;SDS011;68863;49.528;11.010;2023-08-06T04:20:01;5.63;;;1.02;;
79412;SDS011;68863;49.528;11.010;2023-08-06T04:21:02;3.72;;;0.90;;
79412;SDS011;68863;49.528;11.010;2023-08-06T04:22:02;5.43;;;1.60;;
79412;SDS011;68863;49.528;11.010;2023-08-06T04:23:05;3.38;;;0.93;;
79412;SDS011;68863;49.528;11.010;2023-08-06T04:24:06;3.50;;;1.00;;
79412;SDS011;68863;49.528;11.010;2023-08-06T04:25:06;3.28;;;1.02;;
79412;SDS011;68863;49.528;11.010;2023-08-06T04:26:07;3.00;;;1.10;;
79412;SDS011;68863;49.528;11.010;2023-08-06T04:27:07;3.80;;;1.20;;
79412;SDS011;68863;49.528;11.010;2023-08-06T04:28:08;3.53;;;1.33;;
79412;SDS011;68863;49.528;11.010;2023-08-06T04:29:08;4.87;;;1.30;;
79412;SDS011;68863;49.528;11.010;2023-08-06T04:30:09;4.35;;;1.35;;
79412;SDS011;68863;49.528;11.010;2023-08-06T04:31:11;4.55;;;1.23;;
79412;SDS011;68863;49.528;11.010;2023-08-06T04:32:12;3.65;;;1.13;;
79412;SDS011;68863;49.528;11.010;2023-08-06T04:33:13;4.43;;;2.05;;
79412;SDS011;68863;49.528;11.010;2023-08-06T04:34:13;7.40;;;1.60;;
79412;SDS011;68863;49.528;11.010;2023-08-06T04:35:13;3.88;;;1.00;;
79412;SDS011;68863;49.528;11.010;2023-08-06T04:36:13;4.88;;;1.25;;
79412;SDS011;68863;49.528;11.010;2023-08-06T04:37:14;3.72;;;1.30;;
79412;SDS011;68863;49.528;11.010;2023-08-06T04:38:14;3.45;;;1.10;;
79412;SDS011;68863;49.528;11.010;2023-08-06T04:39:14;4.37;;;1.03;;
79412;SDS011;68863;49.528;11.010;2023-08-06T04:40:14;4.30;;;1.20;;
79412;SDS011;68863;49.528;11.010;2023-08-06T04:41:15;4.18;;;1.25;;
79412;SDS011;68863;49.528;11.010;2023-08-06T04:42:15;3.80;;;1.60;;
79412;SDS011;68863;49.528;11.010;2023-08-06T04:43:15;3.83;;;1.20;;
79412;SDS011;68863;49.528;11.010;2023-08-06T04:44:16;4.32;;;1.30;;
79412;SDS011;68863;49.528;11.010;2023-08-06T04:45:16;3.50;;;1.20;;
79412;SDS011;68863;49.528;11.010;2023-08-06T04:46:16;3.83;;;1.38;;
79412;SDS011;68863;49.528;11.010;2023-08-06T04:47:16;3.90;;;1.20;;
79412;SDS011;68863;49.528;11.010;2023-08-06T04:48:17;4.57;;;1.40;;
79412;SDS011;68863;49.528;11.010;2023-08-06T04:49:18;3.75;;;1.02;;
79412;SDS011;68863;49.528;11.010;2023-08-06T04:50:19;4.40;;;1.35;;
79412;SDS011;68863;49.528;11.010;2023-08-06T04:51:19;3.92;;;1.20;;
79412;SDS011;68863;49.528;11.010;2023-08-06T04:52:20;3.47;;;1.10;;
79412;SDS011;68863;49.528;11.010;2023-08-06T04:53:20;3.90;;;1.20;;
79412;SDS011;68863;49.528;11.010;2023-08-06T04:54:20;3.97;;;1.37;;
79412;SDS011;68863;49.528;11.010;2023-08-06T04:55:21;4.07;;;1.08;;
79412;SDS011;68863;49.528;11.010;2023-08-06T04:56:21;3.30;;;1.10;;
79412;SDS011;68863;49.528;11.010;2023-08-06T04:57:21;3.78;;;1.00;;
79412;SDS011;68863;49.528;11.010;2023-08-06T04:58:22;3.60;;;1.10;;
79412;SDS011;68863;49.528;11.010;2023-08-06T04:59:22;4.43;;;1.20;;
79412;SDS011;68863;49.528;11.010;2023-08-06T05:00:22;3.92;;;1.13;;
79412;SDS011;68863;49.528;11.010;2023-08-06T05:01:22;4.63;;;1.60;;
79412;SDS011;68863;49.528;11.010;2023-08-06T05:02:23;3.03;;;1.00;;
79412;SDS011;68863;49.528;11.010;2023-08-06T05:03:23;3.23;;;1.07;;
79412;SDS011;68863;49.528;11.010;2023-08-06T05:04:23;4.15;;;1.20;;
79412;SDS011;68863;49.528;11.010;2023-08-06T05:05:23;4.10;;;1.40;;
79412;SDS011;68863;49.528;11.010;2023-08-06T05:06:24;4.00;;;1.47;;
79412;SDS011;68863;49.528;11.010;2023-08-06T05:07:24;3.30;;;1.30;;
79412;SDS011;68863;49.528;11.010;2023-08-06T05:08:24;3.43;;;1.03;;
79412;SDS011;68863;49.528;11.010;2023-08-06T05:09:24;3.80;;;1.30;;
79412;SDS011;68863;49.528;11.010;2023-08-06T05:10:25;3.57;;;1.10;;
79412;SDS011;68863;49.528;11.010;2023-08-06T05:11:26;5.55;;;1.35;;
79412;SDS011;68863;49.528;11.010;2023-08-06T05:12:26;4.72;;;1.35;;
79412;SDS011;68863;49.528;11.010;2023-08-06T05:13:26;4.93;;;1.20;;
79412;SDS011;68863;49.528;11.010;2023-08-06T05:14:27;4.57;;;1.98;;
79412;SDS011;68863;49.528;11.010;2023-08-06T05:15:27;3.17;;;0.97;;
79412;SDS011;68863;49.528;11.010;2023-08-06T05:16:27;4.23;;;1.30;;
79412;SDS011;68863;49.528;11.010;2023-08-06T05:17:28;5.07;;;1.20;;
79412;SDS011;68863;49.528;11.010;2023-08-06T05:18:28;3.97;;;1.33;;
79412;SDS011;68863;49.528;11.010;2023-08-06T05:19:30;4.35;;;1.15;;
79412;SDS011;68863;49.528;11.010;2023-08-06T05:20:30;3.80;;;1.35;;
79412;SDS011;68863;49.528;11.010;2023-08-06T05:21:31;4.45;;;1.10;;
79412;SDS011;68863;49.528;11.010;2023-08-06T05:22:31;3.97;;;1.40;;
79412;SDS011;68863;49.528;11.010;2023-08-06T05:23:31;3.53;;;1.20;;
79412;SDS011;68863;49.528;11.010;2023-08-06T05:24:31;3.77;;;1.30;;
79412;SDS011;68863;49.528;11.010;2023-08-06T05:25:34;5.25;;;1.52;;
79412;SDS011;68863;49.528;11.010;2023-08-06T05:26:34;6.03;;;1.33;;
79412;SDS011;68863;49.528;11.010;2023-08-06T05:27:35;4.00;;;1.40;;
79412;SDS011;68863;49.528;11.010;2023-08-06T05:28:35;4.35;;;1.52;;
79412;SDS011;68863;49.528;11.010;2023-08-06T05:29:35;3.50;;;1.10;;
79412;SDS011;68863;49.528;11.010;2023-08-06T05:30:38;4.17;;;1.40;;
79412;SDS011;68863;49.528;11.010;2023-08-06T05:31:39;4.40;;;1.40;;
79412;SDS011;68863;49.528;11.010;2023-08-06T05:32:39;4.75;;;1.50;;
79412;SDS011;68863;49.528;11.010;2023-08-06T05:33:40;4.97;;;1.50;;
79412;SDS011;68863;49.528;11.010;2023-08-06T05:34:40;4.45;;;1.10;;
79412;SDS011;68863;49.528;11.010;2023-08-06T05:35:41;4.22;;;1.60;;
79412;SDS011;68863;49.528;11.010;2023-08-06T05:36:42;4.35;;;1.38;;
79412;SDS011;68863;49.528;11.010;2023-08-06T05:37:42;4.40;;;1.45;;
79412;SDS011;68863;49.528;11.010;2023-08-06T05:38:42;4.93;;;2.00;;
79412;SDS011;68863;49.528;11.010;2023-08-06T05:39:43;4.07;;;1.40;;
79412;SDS011;68863;49.528;11.010;2023-08-06T05:40:43;4.20;;;1.40;;
79412;SDS011;68863;49.528;11.010;2023-08-06T05:41:43;3.70;;;1.30;;
79412;SDS011;68863;49.528;11.010;2023-08-06T05:42:44;4.43;;;1.33;;
79412;SDS011;68863;49.528;11.010;2023-08-06T05:43:44;4.30;;;1.90;;
79412;SDS011;68863;49.528;11.010;2023-08-06T05:44:45;4.32;;;1.60;;
79412;SDS011;68863;49.528;11.010;2023-08-06T05:45:45;5.10;;;1.73;;
79412;SDS011;68863;49.528;11.010;2023-08-06T05:46:46;3.85;;;1.20;;
79412;SDS011;68863;49.528;11.010;2023-08-06T05:47:49;3.83;;;1.35;;
79412;SDS011;68863;49.528;11.010;2023-08-06T05:48:50;3.88;;;1.42;;
79412;SDS011;68863;49.528;11.010;2023-08-06T05:49:51;3.92;;;1.83;;
79412;SDS011;68863;49.528;11.010;2023-08-06T05:50:51;4.47;;;1.67;;
79412;SDS011;68863;49.528;11.010;2023-08-06T05:51:52;4.75;;;1.63;;
79412;SDS011;68863;49.528;11.010;2023-08-06T05:52:53;3.53;;;1.42;;
79412;SDS011;68863;49.528;11.010;2023-08-06T05:53:53;4.18;;;1.88;;
79412;SDS011;68863;49.528;11.010;2023-08-06T05:54:54;3.85;;;1.33;;
79412;SDS011;68863;49.528;11.010;2023-08-06T05:55:55;4.20;;;1.73;;
79412;SDS011;68863;49.528;11.010;2023-08-06T05:56:55;3.30;;;1.20;;
79412;SDS011;68863;49.528;11.010;2023-08-06T05:57:56;4.00;;;1.30;;
79412;SDS011;68863;49.528;11.010;2023-08-06T05:58:56;4.28;;;1.50;;
79412;SDS011;68863;49.528;11.010;2023-08-06T05:59:56;4.75;;;1.80;;
79412;SDS011;68863;49.528;11.010;2023-08-06T06:00:56;3.75;;;1.40;;
79412;SDS011;68863;49.528;11.010;2023-08-06T06:01:57;4.03;;;1.52;;
79412;SDS011;68863;49.528;11.010;2023-08-06T06:02:57;4.70;;;1.60;;
79412;SDS011;68863;49.528;11.010;2023-08-06T06:03:57;4.83;;;1.70;;
79412;SDS011;68863;49.528;11.010;2023-08-06T06:04:58;4.23;;;1.50;;
79412;SDS011;68863;49.528;11.010;2023-08-06T06:05:58;5.20;;;1.97;;
79412;SDS011;68863;49.528;11.010;2023-08-06T06:07:00;5.60;;;1.85;;